Drummond Island, MI

4:31 AM EDT on September 01, 2015 (GMT -0400)
Potagannissing Bay Front | | Change Station
CLOSE
Current Station
Personal Weather Station
Location: Drummond Island, MI
Elevation: 587 ft
Nearby Weather Stations

Elev 587 ft 46.06 °N, 83.67 °W | Updated 3 seconds ago

Fog
Fog
59.8 °F
Feels Like 59.8 °F
N
1.0
Wind Variable Wind from South
Gusts 2.0 mph

Today
High -- | Low -- °F
--% Chance of Precip.
Yesterday
High -- | Low -- °F
Precip. -- in
6:55 AM 8:13 PM
Waning Gibbous, 90% visible
Pressure 30.01 in
Visibility 0.2 miles
Clouds Overcast 200 ft
Dew Point 60 °F
Humidity 99%
Rainfall 0.00 in
Snow Depth Not available.
UV 0 out of 12
Pollen 10.50 out of 12
Air Quality Not available.
Flu Activity Not available.
METAR KDRM 010814Z AUTO 00000KT 1/4SM FG OVC002 15/15 A3001 RMK AO2 T01530153
Pressure 30.01 in
Visibility 0.2 miles
Clouds Overcast 200 ft
Dew Point 60 °F
Humidity 99%
Rainfall 0.00 in
Snow Depth Not available.
UV 0 out of 12
Pollen 10.50 out of 12
Air Quality Not available.
Flu Activity Not available.
METAR KDRM 010814Z AUTO 00000KT 1/4SM FG OVC002 15/15 A3001 RMK AO2 T01530153
Nowcast | as of 4:00 am EDT on September 1, 2015

At 5 am...cloudy. Areas of fog. Temperature 63. South winds 5 mph. At 7 am...cloudy. Areas of fog. Temperature 63. Southwest winds 6 mph. At 9 am...cloudy. Areas of fog. Temperature 65. Southwest winds 6 mph. At 11 am...mostly cloudy. Temperature 70. South winds 6 mph.

×

10-Day Weather Forecast

×

Almanac

Astronomy

Sep. 01, 2015 Rise Set
Actual Time
Civil Twilight
Nautical Twilight
Astronomical Twilight
Moon
Length of Visible Light
Length of Day
Tomorrow will be .
, % of the Moon is Illuminated

Today's Extremes

State Highs State Lows

Community

WunderPhotos

Upload Photos

1,851,490 photos uploaded!

WunderBlogs® & News

Nearby

Air Quality

  Air Quality AQ Index Pollutant
Not available.

Snow Depth

Station Depth Elevation

Earthquake Activity

City Distance Mag. Time & Date
Minimum magnitude displayed is 2.5.

Coastal Water Temperatures

Place Temperature

Stations

Nearby Weather Stations

Station Location Temp. Windchill Dew Point Humidity Wind Precip. Elev Updated Type